sensor_id;sensor_type;location;lat;lon;timestamp;temperature;humidity
15111;DHT22;7656;51.954;7.998;2022-12-07T00:03:35;6.70;99.90
15111;DHT22;7656;51.954;7.998;2022-12-07T00:07:56;6.80;99.90
15111;DHT22;7656;51.954;7.998;2022-12-07T00:12:17;6.90;99.90
15111;DHT22;7656;51.954;7.998;2022-12-07T00:16:39;6.90;99.90
15111;DHT22;7656;51.954;7.998;2022-12-07T00:21:05;7.00;99.90
15111;DHT22;7656;51.954;7.998;2022-12-07T00:25:28;7.10;99.90
15111;DHT22;7656;51.954;7.998;2022-12-07T00:29:50;7.10;99.90
15111;DHT22;7656;51.954;7.998;2022-12-07T00:34:14;7.20;99.90
15111;DHT22;7656;51.954;7.998;2022-12-07T00:38:37;7.20;99.90
15111;DHT22;7656;51.954;7.998;2022-12-07T00:42:59;7.30;99.90
15111;DHT22;7656;51.954;7.998;2022-12-07T00:47:20;7.30;99.90
15111;DHT22;7656;51.954;7.998;2022-12-07T00:51:41;7.30;99.90
15111;DHT22;7656;51.954;7.998;2022-12-07T00:56:20;7.40;99.90
15111;DHT22;7656;51.954;7.998;2022-12-07T01:00:45;7.30;99.90
15111;DHT22;7656;51.954;7.998;2022-12-07T01:05:07;7.30;99.90
15111;DHT22;7656;51.954;7.998;2022-12-07T01:09:28;7.30;99.90
15111;DHT22;7656;51.954;7.998;2022-12-07T01:13:51;7.30;99.90
15111;DHT22;7656;51.954;7.998;2022-12-07T01:18:13;7.30;99.90
15111;DHT22;7656;51.954;7.998;2022-12-07T01:22:38;7.30;99.90
15111;DHT22;7656;51.954;7.998;2022-12-07T01:27:00;7.40;99.90
15111;DHT22;7656;51.954;7.998;2022-12-07T01:31:23;7.40;99.90
15111;DHT22;7656;51.954;7.998;2022-12-07T01:35:45;7.30;99.90
15111;DHT22;7656;51.954;7.998;2022-12-07T01:40:07;7.30;99.90
15111;DHT22;7656;51.954;7.998;2022-12-07T01:44:30;7.30;99.90
15111;DHT22;7656;51.954;7.998;2022-12-07T01:48:52;7.30;99.90
15111;DHT22;7656;51.954;7.998;2022-12-07T01:53:13;7.20;99.90
15111;DHT22;7656;51.954;7.998;2022-12-07T01:57:39;7.20;99.90
15111;DHT22;7656;51.954;7.998;2022-12-07T02:02:02;7.20;99.90
15111;DHT22;7656;51.954;7.998;2022-12-07T02:06:25;7.10;99.90
15111;DHT22;7656;51.954;7.998;2022-12-07T02:10:47;7.00;99.90
15111;DHT22;7656;51.954;7.998;2022-12-07T02:15:08;6.80;99.90
15111;DHT22;7656;51.954;7.998;2022-12-07T02:34:50;6.40;99.90
15111;DHT22;7656;51.954;7.998;2022-12-07T02:39:32;6.50;99.90
15111;DHT22;7656;51.954;7.998;2022-12-07T02:44:09;6.50;99.90
15111;DHT22;7656;51.954;7.998;2022-12-07T02:48:33;6.50;99.90
15111;DHT22;7656;51.954;7.998;2022-12-07T02:52:55;6.40;99.90
15111;DHT22;7656;51.954;7.998;2022-12-07T03:02:25;6.20;99.90
15111;DHT22;7656;51.954;7.998;2022-12-07T03:06:57;6.10;99.90
15111;DHT22;7656;51.954;7.998;2022-12-07T03:11:44;5.90;99.90
15111;DHT22;7656;51.954;7.998;2022-12-07T03:16:27;5.90;99.90
15111;DHT22;7656;51.954;7.998;2022-12-07T03:20:54;5.60;99.90
15111;DHT22;7656;51.954;7.998;2022-12-07T03:25:18;5.50;99.90
15111;DHT22;7656;51.954;7.998;2022-12-07T03:29:47;5.30;99.90
15111;DHT22;7656;51.954;7.998;2022-12-07T03:39:00;5.30;99.90
15111;DHT22;7656;51.954;7.998;2022-12-07T03:43:23;5.20;99.90
15111;DHT22;7656;51.954;7.998;2022-12-07T03:52:54;5.10;99.90
15111;DHT22;7656;51.954;7.998;2022-12-07T03:57:18;5.00;99.90
15111;DHT22;7656;51.954;7.998;2022-12-07T04:01:42;5.00;99.90
15111;DHT22;7656;51.954;7.998;2022-12-07T04:06:04;4.90;99.90
15111;DHT22;7656;51.954;7.998;2022-12-07T04:10:26;4.90;99.90
15111;DHT22;7656;51.954;7.998;2022-12-07T04:14:47;5.10;99.90
15111;DHT22;7656;51.954;7.998;2022-12-07T04:19:08;5.20;99.90
15111;DHT22;7656;51.954;7.998;2022-12-07T04:23:29;5.20;99.90
15111;DHT22;7656;51.954;7.998;2022-12-07T04:27:50;5.10;99.90
15111;DHT22;7656;51.954;7.998;2022-12-07T04:32:11;5.20;99.90
15111;DHT22;7656;51.954;7.998;2022-12-07T04:36:32;5.30;99.90
15111;DHT22;7656;51.954;7.998;2022-12-07T04:40:53;5.30;99.90
15111;DHT22;7656;51.954;7.998;2022-12-07T04:45:15;5.20;99.90
15111;DHT22;7656;51.954;7.998;2022-12-07T04:49:36;5.10;99.90
15111;DHT22;7656;51.954;7.998;2022-12-07T04:53:57;5.20;99.90
15111;DHT22;7656;51.954;7.998;2022-12-07T04:58:18;5.20;99.90
15111;DHT22;7656;51.954;7.998;2022-12-07T05:02:39;5.10;99.90
15111;DHT22;7656;51.954;7.998;2022-12-07T05:07:00;5.10;99.90
15111;DHT22;7656;51.954;7.998;2022-12-07T05:11:21;5.20;99.90
15111;DHT22;7656;51.954;7.998;2022-12-07T05:16:01;5.20;99.90
15111;DHT22;7656;51.954;7.998;2022-12-07T05:20:22;5.20;99.90
15111;DHT22;7656;51.954;7.998;2022-12-07T05:24:43;5.30;99.90
15111;DHT22;7656;51.954;7.998;2022-12-07T05:29:04;5.40;99.90
15111;DHT22;7656;51.954;7.998;2022-12-07T05:33:26;5.40;99.90
15111;DHT22;7656;51.954;7.998;2022-12-07T05:37:47;5.40;99.90
15111;DHT22;7656;51.954;7.998;2022-12-07T05:42:10;5.30;99.90
15111;DHT22;7656;51.954;7.998;2022-12-07T05:46:34;5.20;99.90
15111;DHT22;7656;51.954;7.998;2022-12-07T05:50:56;5.20;99.90
15111;DHT22;7656;51.954;7.998;2022-12-07T05:55:18;5.30;99.90
15111;DHT22;7656;51.954;7.998;2022-12-07T05:59:39;5.30;99.90
15111;DHT22;7656;51.954;7.998;2022-12-07T06:04:00;5.10;99.90
15111;DHT22;7656;51.954;7.998;2022-12-07T06:08:21;5.10;99.90
15111;DHT22;7656;51.954;7.998;2022-12-07T06:12:42;5.10;99.90
15111;DHT22;7656;51.954;7.998;2022-12-07T06:17:04;5.10;99.90
15111;DHT22;7656;51.954;7.998;2022-12-07T06:21:25;5.10;99.90
15111;DHT22;7656;51.954;7.998;2022-12-07T06:25:49;5.20;99.90
15111;DHT22;7656;51.954;7.998;2022-12-07T06:30:10;5.20;99.90
15111;DHT22;7656;51.954;7.998;2022-12-07T06:34:31;5.30;99.90
15111;DHT22;7656;51.954;7.998;2022-12-07T06:38:53;5.20;99.90
15111;DHT22;7656;51.954;7.998;2022-12-07T06:43:14;5.10;99.90
15111;DHT22;7656;51.954;7.998;2022-12-07T06:47:35;5.00;99.90
15111;DHT22;7656;51.954;7.998;2022-12-07T06:51:57;5.00;99.90
15111;DHT22;7656;51.954;7.998;2022-12-07T06:56:18;4.90;99.90
15111;DHT22;7656;51.954;7.998;2022-12-07T07:00:39;4.90;99.90
15111;DHT22;7656;51.954;7.998;2022-12-07T07:05:01;4.90;99.90
15111;DHT22;7656;51.954;7.998;2022-12-07T07:09:23;4.90;99.90
15111;DHT22;7656;51.954;7.998;2022-12-07T07:13:44;4.90;99.90
15111;DHT22;7656;51.954;7.998;2022-12-07T07:18:06;4.80;99.90
15111;DHT22;7656;51.954;7.998;2022-12-07T07:22:27;4.80;99.90
15111;DHT22;7656;51.954;7.998;2022-12-07T07:26:48;4.80;99.90
15111;DHT22;7656;51.954;7.998;2022-12-07T07:31:09;4.70;99.90
15111;DHT22;7656;51.954;7.998;2022-12-07T07:35:32;4.70;99.90
15111;DHT22;7656;51.954;7.998;2022-12-07T07:39:54;4.70;99.90
15111;DHT22;7656;51.954;7.998;2022-12-07T07:44:15;4.70;99.90
15111;DHT22;7656;51.954;7.998;2022-12-07T07:48:36;4.70;99.90
15111;DHT22;7656;51.954;7.998;2022-12-07T07:52:58;4.70;99.90
15111;DHT22;7656;51.954;7.998;2022-12-07T07:57:19;4.90;99.90
15111;DHT22;7656;51.954;7.998;2022-12-07T08:01:40;5.30;99.90
15111;DHT22;7656;51.954;7.998;2022-12-07T08:06:04;5.80;99.90
15111;DHT22;7656;51.954;7.998;2022-12-07T08:10:25;6.60;99.90
15111;DHT22;7656;51.954;7.998;2022-12-07T08:14:46;7.00;99.90
15111;DHT22;7656;51.954;7.998;2022-12-07T08:19:07;8.00;99.90
15111;DHT22;7656;51.954;7.998;2022-12-07T08:23:29;9.90;99.90
15111;DHT22;7656;51.954;7.998;2022-12-07T08:27:51;11.20;99.90
15111;DHT22;7656;51.954;7.998;2022-12-07T08:32:12;12.10;99.90
15111;DHT22;7656;51.954;7.998;2022-12-07T08:36:33;13.80;99.90
15111;DHT22;7656;51.954;7.998;2022-12-07T08:40:58;13.70;99.90
15111;DHT22;7656;51.954;7.998;2022-12-07T08:45:20;12.50;99.90
15111;DHT22;7656;51.954;7.998;2022-12-07T08:49:44;11.10;99.90
15111;DHT22;7656;51.954;7.998;2022-12-07T08:54:12;10.20;99.90
15111;DHT22;7656;51.954;7.998;2022-12-07T08:58:36;10.20;99.90
15111;DHT22;7656;51.954;7.998;2022-12-07T09:02:57;12.10;99.90
15111;DHT22;7656;51.954;7.998;2022-12-07T09:07:18;14.00;99.90
15111;DHT22;7656;51.954;7.998;2022-12-07T09:11:40;15.60;99.90
15111;DHT22;7656;51.954;7.998;2022-12-07T09:16:01;16.50;99.90
15111;DHT22;7656;51.954;7.998;2022-12-07T09:20:22;16.30;99.90
15111;DHT22;7656;51.954;7.998;2022-12-07T09:24:43;14.60;99.90
15111;DHT22;7656;51.954;7.998;2022-12-07T09:29:06;13.10;99.90
15111;DHT22;7656;51.954;7.998;2022-12-07T09:33:27;11.90;99.90
15111;DHT22;7656;51.954;7.998;2022-12-07T09:37:48;11.50;99.90
15111;DHT22;7656;51.954;7.998;2022-12-07T09:46:56;10.80;99.90
15111;DHT22;7656;51.954;7.998;2022-12-07T09:51:23;10.60;99.90
15111;DHT22;7656;51.954;7.998;2022-12-07T09:55:44;10.50;99.90
15111;DHT22;7656;51.954;7.998;2022-12-07T10:00:17;10.50;99.90
15111;DHT22;7656;51.954;7.998;2022-12-07T10:04:40;10.60;99.90
15111;DHT22;7656;51.954;7.998;2022-12-07T10:09:01;10.50;99.90
15111;DHT22;7656;51.954;7.998;2022-12-07T10:18:21;12.70;99.90
15111;DHT22;7656;51.954;7.998;2022-12-07T10:23:13;13.70;99.90
15111;DHT22;7656;51.954;7.998;2022-12-07T10:27:35;14.70;99.90
15111;DHT22;7656;51.954;7.998;2022-12-07T10:32:08;15.20;99.90
15111;DHT22;7656;51.954;7.998;2022-12-07T10:36:49;14.60;99.90
15111;DHT22;7656;51.954;7.998;2022-12-07T10:41:10;14.00;99.90
15111;DHT22;7656;51.954;7.998;2022-12-07T10:45:33;14.90;99.90
15111;DHT22;7656;51.954;7.998;2022-12-07T10:50:48;15.20;99.90
15111;DHT22;7656;51.954;7.998;2022-12-07T11:06:23;12.70;99.90
15111;DHT22;7656;51.954;7.998;2022-12-07T11:10:52;11.70;99.90
15111;DHT22;7656;51.954;7.998;2022-12-07T11:15:48;10.90;99.90
15111;DHT22;7656;51.954;7.998;2022-12-07T11:20:37;10.60;99.90
15111;DHT22;7656;51.954;7.998;2022-12-07T11:39:47;11.00;99.90
15111;DHT22;7656;51.954;7.998;2022-12-07T11:49:13;10.50;99.90
15111;DHT22;7656;51.954;7.998;2022-12-07T11:53:46;9.90;99.90
15111;DHT22;7656;51.954;7.998;2022-12-07T12:03:30;10.40;99.90
15111;DHT22;7656;51.954;7.998;2022-12-07T12:22:39;11.30;99.90
15111;DHT22;7656;51.954;7.998;2022-12-07T12:27:06;11.20;99.90
15111;DHT22;7656;51.954;7.998;2022-12-07T12:31:38;10.60;99.90
15111;DHT22;7656;51.954;7.998;2022-12-07T12:40:55;10.60;99.90
15111;DHT22;7656;51.954;7.998;2022-12-07T12:45:27;10.30;99.90
15111;DHT22;7656;51.954;7.998;2022-12-07T12:54:37;10.40;99.90
15111;DHT22;7656;51.954;7.998;2022-12-07T12:59:24;10.20;99.90
15111;DHT22;7656;51.954;7.998;2022-12-07T13:03:53;10.00;99.90
15111;DHT22;7656;51.954;7.998;2022-12-07T13:08:21;9.90;99.90
15111;DHT22;7656;51.954;7.998;2022-12-07T13:21:55;10.30;99.90
15111;DHT22;7656;51.954;7.998;2022-12-07T13:26:35;9.90;99.90
15111;DHT22;7656;51.954;7.998;2022-12-07T13:35:54;9.20;99.90
15111;DHT22;7656;51.954;7.998;2022-12-07T13:40:21;9.00;99.90
15111;DHT22;7656;51.954;7.998;2022-12-07T13:44:43;8.80;99.90
15111;DHT22;7656;51.954;7.998;2022-12-07T13:54:00;8.50;99.90
15111;DHT22;7656;51.954;7.998;2022-12-07T13:58:23;8.30;99.90
15111;DHT22;7656;51.954;7.998;2022-12-07T14:02:58;8.10;99.90
15111;DHT22;7656;51.954;7.998;2022-12-07T14:07:27;8.00;99.90
15111;DHT22;7656;51.954;7.998;2022-12-07T14:11:50;7.70;99.90
15111;DHT22;7656;51.954;7.998;2022-12-07T14:16:27;7.50;99.90
15111;DHT22;7656;51.954;7.998;2022-12-07T14:21:22;7.60;99.90
15111;DHT22;7656;51.954;7.998;2022-12-07T14:25:49;7.50;99.90
15111;DHT22;7656;51.954;7.998;2022-12-07T14:30:17;7.60;99.90
15111;DHT22;7656;51.954;7.998;2022-12-07T14:34:39;7.50;99.90
15111;DHT22;7656;51.954;7.998;2022-12-07T14:39:00;7.50;99.90
15111;DHT22;7656;51.954;7.998;2022-12-07T14:43:21;7.50;99.90
15111;DHT22;7656;51.954;7.998;2022-12-07T14:47:42;7.50;99.90
15111;DHT22;7656;51.954;7.998;2022-12-07T14:52:05;7.40;99.90
15111;DHT22;7656;51.954;7.998;2022-12-07T14:56:34;7.30;99.90
15111;DHT22;7656;51.954;7.998;2022-12-07T15:00:55;7.40;99.90
15111;DHT22;7656;51.954;7.998;2022-12-07T15:05:17;7.20;99.90
15111;DHT22;7656;51.954;7.998;2022-12-07T15:09:38;7.30;99.90
15111;DHT22;7656;51.954;7.998;2022-12-07T15:13:59;7.20;99.90
15111;DHT22;7656;51.954;7.998;2022-12-07T15:18:31;7.10;99.90
15111;DHT22;7656;51.954;7.998;2022-12-07T15:22:52;7.10;99.90
15111;DHT22;7656;51.954;7.998;2022-12-07T15:27:13;7.10;99.90
15111;DHT22;7656;51.954;7.998;2022-12-07T15:31:34;7.10;99.90
15111;DHT22;7656;51.954;7.998;2022-12-07T15:35:56;6.90;99.90
15111;DHT22;7656;51.954;7.998;2022-12-07T15:40:19;6.90;99.90
15111;DHT22;7656;51.954;7.998;2022-12-07T15:44:40;6.80;99.90
15111;DHT22;7656;51.954;7.998;2022-12-07T15:49:20;6.80;99.90
15111;DHT22;7656;51.954;7.998;2022-12-07T15:53:41;6.80;99.90
15111;DHT22;7656;51.954;7.998;2022-12-07T15:58:02;6.80;99.90
15111;DHT22;7656;51.954;7.998;2022-12-07T16:02:24;6.80;99.90
15111;DHT22;7656;51.954;7.998;2022-12-07T16:06:45;6.80;99.90
15111;DHT22;7656;51.954;7.998;2022-12-07T16:11:07;6.80;99.90
15111;DHT22;7656;51.954;7.998;2022-12-07T16:15:28;6.70;99.90
15111;DHT22;7656;51.954;7.998;2022-12-07T16:19:49;6.60;99.90
15111;DHT22;7656;51.954;7.998;2022-12-07T16:24:10;6.60;99.90
15111;DHT22;7656;51.954;7.998;2022-12-07T16:28:31;6.50;99.90
15111;DHT22;7656;51.954;7.998;2022-12-07T16:32:52;6.50;99.90
15111;DHT22;7656;51.954;7.998;2022-12-07T16:37:13;6.40;99.90
15111;DHT22;7656;51.954;7.998;2022-12-07T16:41:34;6.40;99.90
15111;DHT22;7656;51.954;7.998;2022-12-07T16:45:55;6.40;99.90
15111;DHT22;7656;51.954;7.998;2022-12-07T16:50:16;6.40;99.90
15111;DHT22;7656;51.954;7.998;2022-12-07T16:54:37;6.50;99.90
15111;DHT22;7656;51.954;7.998;2022-12-07T16:58:58;6.50;99.90
15111;DHT22;7656;51.954;7.998;2022-12-07T17:03:20;6.50;99.90
15111;DHT22;7656;51.954;7.998;2022-12-07T17:07:41;6.50;99.90
15111;DHT22;7656;51.954;7.998;2022-12-07T17:12:02;6.50;99.90
15111;DHT22;7656;51.954;7.998;2022-12-07T17:16:23;6.40;99.90
15111;DHT22;7656;51.954;7.998;2022-12-07T17:20:45;6.30;99.90
15111;DHT22;7656;51.954;7.998;2022-12-07T17:25:06;6.20;99.90
15111;DHT22;7656;51.954;7.998;2022-12-07T17:29:27;6.30;99.90
15111;DHT22;7656;51.954;7.998;2022-12-07T17:33:48;6.20;99.90
15111;DHT22;7656;51.954;7.998;2022-12-07T17:38:09;6.20;99.90
15111;DHT22;7656;51.954;7.998;2022-12-07T17:42:30;6.30;99.90
15111;DHT22;7656;51.954;7.998;2022-12-07T17:46:57;6.30;99.90
15111;DHT22;7656;51.954;7.998;2022-12-07T17:51:19;6.20;99.90
15111;DHT22;7656;51.954;7.998;2022-12-07T17:55:58;6.30;99.90
15111;DHT22;7656;51.954;7.998;2022-12-07T18:00:20;6.30;99.90
15111;DHT22;7656;51.954;7.998;2022-12-07T18:04:41;6.30;99.90
15111;DHT22;7656;51.954;7.998;2022-12-07T18:09:02;6.30;99.90
15111;DHT22;7656;51.954;7.998;2022-12-07T18:13:24;6.20;99.90
15111;DHT22;7656;51.954;7.998;2022-12-07T18:17:58;6.10;99.90
15111;DHT22;7656;51.954;7.998;2022-12-07T18:22:19;6.10;99.90
15111;DHT22;7656;51.954;7.998;2022-12-07T18:26:41;6.00;99.90
15111;DHT22;7656;51.954;7.998;2022-12-07T18:31:03;5.80;99.90
15111;DHT22;7656;51.954;7.998;2022-12-07T18:35:24;6.00;99.90
15111;DHT22;7656;51.954;7.998;2022-12-07T18:39:45;5.90;99.90
15111;DHT22;7656;51.954;7.998;2022-12-07T18:44:07;5.90;99.90
15111;DHT22;7656;51.954;7.998;2022-12-07T18:48:28;5.90;99.90
15111;DHT22;7656;51.954;7.998;2022-12-07T18:52:49;5.90;99.90
15111;DHT22;7656;51.954;7.998;2022-12-07T18:57:10;5.90;99.90
15111;DHT22;7656;51.954;7.998;2022-12-07T19:01:31;5.90;99.90
15111;DHT22;7656;51.954;7.998;2022-12-07T19:05:53;6.00;99.90
15111;DHT22;7656;51.954;7.998;2022-12-07T19:10:18;6.00;99.90
15111;DHT22;7656;51.954;7.998;2022-12-07T19:14:40;6.10;99.90
15111;DHT22;7656;51.954;7.998;2022-12-07T19:19:02;6.00;99.90
15111;DHT22;7656;51.954;7.998;2022-12-07T19:23:23;6.10;99.90
15111;DHT22;7656;51.954;7.998;2022-12-07T19:27:46;6.10;99.90
15111;DHT22;7656;51.954;7.998;2022-12-07T19:32:07;6.10;99.90
15111;DHT22;7656;51.954;7.998;2022-12-07T19:36:29;6.10;99.90
15111;DHT22;7656;51.954;7.998;2022-12-07T19:40:50;6.20;99.90
15111;DHT22;7656;51.954;7.998;2022-12-07T19:45:11;6.10;99.90
15111;DHT22;7656;51.954;7.998;2022-12-07T19:49:34;6.00;99.90
15111;DHT22;7656;51.954;7.998;2022-12-07T19:54:00;6.00;99.90
15111;DHT22;7656;51.954;7.998;2022-12-07T19:58:21;5.90;99.90
15111;DHT22;7656;51.954;7.998;2022-12-07T20:02:42;6.00;99.90
15111;DHT22;7656;51.954;7.998;2022-12-07T20:07:03;5.90;99.90
15111;DHT22;7656;51.954;7.998;2022-12-07T20:11:24;5.80;99.90
15111;DHT22;7656;51.954;7.998;2022-12-07T20:16:05;5.80;99.90
15111;DHT22;7656;51.954;7.998;2022-12-07T20:20:26;5.80;99.90
15111;DHT22;7656;51.954;7.998;2022-12-07T20:24:47;5.80;99.90
15111;DHT22;7656;51.954;7.998;2022-12-07T20:29:10;5.80;99.90
15111;DHT22;7656;51.954;7.998;2022-12-07T20:33:34;5.70;99.90
15111;DHT22;7656;51.954;7.998;2022-12-07T20:37:55;5.70;99.90
15111;DHT22;7656;51.954;7.998;2022-12-07T20:42:16;5.70;99.90
15111;DHT22;7656;51.954;7.998;2022-12-07T20:46:56;5.70;99.90
15111;DHT22;7656;51.954;7.998;2022-12-07T20:51:17;5.70;99.90
15111;DHT22;7656;51.954;7.998;2022-12-07T20:55:38;5.60;99.90
15111;DHT22;7656;51.954;7.998;2022-12-07T21:00:00;5.70;99.90
15111;DHT22;7656;51.954;7.998;2022-12-07T21:04:21;5.40;99.90
15111;DHT22;7656;51.954;7.998;2022-12-07T21:08:49;5.40;99.90
15111;DHT22;7656;51.954;7.998;2022-12-07T21:13:11;5.50;99.90
15111;DHT22;7656;51.954;7.998;2022-12-07T21:17:32;5.50;99.90
15111;DHT22;7656;51.954;7.998;2022-12-07T21:21:54;5.40;99.90
15111;DHT22;7656;51.954;7.998;2022-12-07T21:26:22;5.40;99.90
15111;DHT22;7656;51.954;7.998;2022-12-07T21:30:44;5.10;99.90
15111;DHT22;7656;51.954;7.998;2022-12-07T21:35:05;5.10;99.90
15111;DHT22;7656;51.954;7.998;2022-12-07T21:39:26;5.10;99.90
15111;DHT22;7656;51.954;7.998;2022-12-07T21:43:48;5.10;99.90
15111;DHT22;7656;51.954;7.998;2022-12-07T21:48:10;5.10;99.90
15111;DHT22;7656;51.954;7.998;2022-12-07T21:52:31;5.10;99.90
15111;DHT22;7656;51.954;7.998;2022-12-07T21:56:52;5.00;99.90
15111;DHT22;7656;51.954;7.998;2022-12-07T22:01:18;5.10;99.90
15111;DHT22;7656;51.954;7.998;2022-12-07T22:05:44;5.10;99.90
15111;DHT22;7656;51.954;7.998;2022-12-07T22:10:05;5.10;99.90
15111;DHT22;7656;51.954;7.998;2022-12-07T22:14:27;5.10;99.90
15111;DHT22;7656;51.954;7.998;2022-12-07T22:19:07;5.00;99.90
15111;DHT22;7656;51.954;7.998;2022-12-07T22:23:31;4.80;99.90
15111;DHT22;7656;51.954;7.998;2022-12-07T22:27:52;5.00;99.90
15111;DHT22;7656;51.954;7.998;2022-12-07T22:32:13;5.00;99.90
15111;DHT22;7656;51.954;7.998;2022-12-07T22:36:34;5.10;99.90
15111;DHT22;7656;51.954;7.998;2022-12-07T22:40:56;5.10;99.90
15111;DHT22;7656;51.954;7.998;2022-12-07T22:45:17;5.10;99.90
15111;DHT22;7656;51.954;7.998;2022-12-07T22:49:38;5.10;99.90
15111;DHT22;7656;51.954;7.998;2022-12-07T22:54:01;5.20;99.90
15111;DHT22;7656;51.954;7.998;2022-12-07T22:58:23;5.20;99.90
15111;DHT22;7656;51.954;7.998;2022-12-07T23:02:47;5.20;99.90
15111;DHT22;7656;51.954;7.998;2022-12-07T23:07:08;4.90;99.90
15111;DHT22;7656;51.954;7.998;2022-12-07T23:11:30;4.70;99.90
15111;DHT22;7656;51.954;7.998;2022-12-07T23:16:14;4.80;99.90
15111;DHT22;7656;51.954;7.998;2022-12-07T23:20:35;4.90;99.90
15111;DHT22;7656;51.954;7.998;2022-12-07T23:24:56;5.00;99.90
15111;DHT22;7656;51.954;7.998;2022-12-07T23:29:17;4.90;99.90
15111;DHT22;7656;51.954;7.998;2022-12-07T23:33:39;4.90;99.90
15111;DHT22;7656;51.954;7.998;2022-12-07T23:38:00;4.90;99.90
15111;DHT22;7656;51.954;7.998;2022-12-07T23:42:21;4.80;99.90
15111;DHT22;7656;51.954;7.998;2022-12-07T23:46:42;4.90;99.90
15111;DHT22;7656;51.954;7.998;2022-12-07T23:51:04;4.90;99.90
15111;DHT22;7656;51.954;7.998;2022-12-07T23:55:26;5.00;99.90
15111;DHT22;7656;51.954;7.998;2022-12-07T23:59:47;5.00;99.90
